sensor_id;sensor_type;location;lat;lon;timestamp;P1;durP1;ratioP1;P2;durP2;ratioP2
54167;SDS011;68429;50.958;3.592;2023-03-25T00:00:58;6.10;;;1.40;;
54167;SDS011;68429;50.958;3.592;2023-03-25T00:03:28;7.95;;;1.90;;
54167;SDS011;68429;50.958;3.592;2023-03-25T00:05:57;6.18;;;1.50;;
54167;SDS011;68429;50.958;3.592;2023-03-25T00:08:23;7.35;;;1.30;;
54167;SDS011;68429;50.958;3.592;2023-03-25T00:10:53;11.98;;;1.98;;
54167;SDS011;68429;50.958;3.592;2023-03-25T00:13:21;6.60;;;1.58;;
54167;SDS011;68429;50.958;3.592;2023-03-25T00:15:47;6.75;;;1.38;;
54167;SDS011;68429;50.958;3.592;2023-03-25T00:18:17;5.45;;;1.35;;
54167;SDS011;68429;50.958;3.592;2023-03-25T00:20:44;8.80;;;1.67;;
54167;SDS011;68429;50.958;3.592;2023-03-25T00:23:13;6.22;;;1.25;;
54167;SDS011;68429;50.958;3.592;2023-03-25T00:25:40;9.15;;;1.50;;
54167;SDS011;68429;50.958;3.592;2023-03-25T00:28:06;5.38;;;1.35;;
54167;SDS011;68429;50.958;3.592;2023-03-25T00:30:32;7.43;;;1.63;;
54167;SDS011;68429;50.958;3.592;2023-03-25T00:32:58;7.88;;;1.13;;
54167;SDS011;68429;50.958;3.592;2023-03-25T00:35:26;8.55;;;1.50;;
54167;SDS011;68429;50.958;3.592;2023-03-25T00:37:53;8.77;;;1.60;;
54167;SDS011;68429;50.958;3.592;2023-03-25T00:40:24;6.97;;;1.63;;
54167;SDS011;68429;50.958;3.592;2023-03-25T00:42:52;8.20;;;1.45;;
54167;SDS011;68429;50.958;3.592;2023-03-25T00:45:18;7.75;;;1.95;;
54167;SDS011;68429;50.958;3.592;2023-03-25T00:47:44;9.10;;;1.88;;
54167;SDS011;68429;50.958;3.592;2023-03-25T00:50:10;7.80;;;1.88;;
54167;SDS011;68429;50.958;3.592;2023-03-25T00:52:36;10.95;;;2.25;;
54167;SDS011;68429;50.958;3.592;2023-03-25T00:55:02;10.55;;;2.30;;
54167;SDS011;68429;50.958;3.592;2023-03-25T00:57:29;11.05;;;2.17;;
54167;SDS011;68429;50.958;3.592;2023-03-25T00:59:55;20.42;;;2.63;;
54167;SDS011;68429;50.958;3.592;2023-03-25T01:02:21;17.42;;;2.67;;
54167;SDS011;68429;50.958;3.592;2023-03-25T01:04:47;13.48;;;2.33;;
54167;SDS011;68429;50.958;3.592;2023-03-25T01:07:17;9.88;;;1.98;;
54167;SDS011;68429;50.958;3.592;2023-03-25T01:09:44;13.30;;;2.17;;
54167;SDS011;68429;50.958;3.592;2023-03-25T01:12:13;10.80;;;3.27;;
54167;SDS011;68429;50.958;3.592;2023-03-25T01:14:40;10.15;;;2.10;;
54167;SDS011;68429;50.958;3.592;2023-03-25T01:17:06;10.32;;;2.80;;
54167;SDS011;68429;50.958;3.592;2023-03-25T01:19:32;15.02;;;2.42;;
54167;SDS011;68429;50.958;3.592;2023-03-25T01:21:58;15.93;;;2.65;;
54167;SDS011;68429;50.958;3.592;2023-03-25T01:24:23;17.58;;;2.80;;
54167;SDS011;68429;50.958;3.592;2023-03-25T01:26:49;9.57;;;2.72;;
54167;SDS011;68429;50.958;3.592;2023-03-25T01:29:16;11.20;;;2.38;;
54167;SDS011;68429;50.958;3.592;2023-03-25T01:31:44;20.45;;;3.53;;
54167;SDS011;68429;50.958;3.592;2023-03-25T01:34:11;9.00;;;2.58;;
54167;SDS011;68429;50.958;3.592;2023-03-25T01:36:36;16.08;;;2.53;;
54167;SDS011;68429;50.958;3.592;2023-03-25T01:39:04;9.73;;;2.72;;
54167;SDS011;68429;50.958;3.592;2023-03-25T01:41:31;13.93;;;1.92;;
54167;SDS011;68429;50.958;3.592;2023-03-25T01:43:59;19.38;;;3.10;;
54167;SDS011;68429;50.958;3.592;2023-03-25T01:46:55;11.80;;;2.72;;
54167;SDS011;68429;50.958;3.592;2023-03-25T01:49:36;11.60;;;1.88;;
54167;SDS011;68429;50.958;3.592;2023-03-25T01:54:33;9.13;;;2.70;;
54167;SDS011;68429;50.958;3.592;2023-03-25T01:57:02;18.65;;;2.85;;
54167;SDS011;68429;50.958;3.592;2023-03-25T01:59:29;16.88;;;2.38;;
54167;SDS011;68429;50.958;3.592;2023-03-25T02:01:55;16.08;;;2.92;;
54167;SDS011;68429;50.958;3.592;2023-03-25T02:04:30;16.75;;;2.67;;
54167;SDS011;68429;50.958;3.592;2023-03-25T02:06:58;18.77;;;2.35;;
54167;SDS011;68429;50.958;3.592;2023-03-25T02:09:25;10.88;;;2.42;;
54167;SDS011;68429;50.958;3.592;2023-03-25T02:11:51;20.02;;;2.95;;
54167;SDS011;68429;50.958;3.592;2023-03-25T02:14:22;19.75;;;2.95;;
54167;SDS011;68429;50.958;3.592;2023-03-25T02:17:09;23.15;;;3.33;;
54167;SDS011;68429;50.958;3.592;2023-03-25T02:22:24;24.75;;;3.00;;
54167;SDS011;68429;50.958;3.592;2023-03-25T02:28:06;21.50;;;3.00;;
54167;SDS011;68429;50.958;3.592;2023-03-25T02:33:36;23.77;;;3.45;;
54167;SDS011;68429;50.958;3.592;2023-03-25T02:36:37;13.57;;;2.38;;
54167;SDS011;68429;50.958;3.592;2023-03-25T02:39:33;23.48;;;3.88;;
54167;SDS011;68429;50.958;3.592;2023-03-25T02:45:29;17.95;;;2.42;;
54167;SDS011;68429;50.958;3.592;2023-03-25T02:48:10;19.92;;;3.13;;
54167;SDS011;68429;50.958;3.592;2023-03-25T02:50:43;16.70;;;2.92;;
54167;SDS011;68429;50.958;3.592;2023-03-25T02:53:16;15.15;;;2.55;;
54167;SDS011;68429;50.958;3.592;2023-03-25T02:55:47;18.52;;;2.63;;
54167;SDS011;68429;50.958;3.592;2023-03-25T02:58:19;16.25;;;2.47;;
54167;SDS011;68429;50.958;3.592;2023-03-25T03:00:46;11.25;;;2.38;;
54167;SDS011;68429;50.958;3.592;2023-03-25T03:03:14;21.58;;;3.55;;
54167;SDS011;68429;50.958;3.592;2023-03-25T03:05:43;15.00;;;2.60;;
54167;SDS011;68429;50.958;3.592;2023-03-25T03:19:13;13.68;;;2.30;;
54167;SDS011;68429;50.958;3.592;2023-03-25T03:21:53;17.30;;;2.70;;
54167;SDS011;68429;50.958;3.592;2023-03-25T03:24:34;3.97;;;1.27;;
54167;SDS011;68429;50.958;3.592;2023-03-25T03:27:21;14.43;;;2.58;;
54167;SDS011;68429;50.958;3.592;2023-03-25T03:35:30;11.57;;;2.25;;
54167;SDS011;68429;50.958;3.592;2023-03-25T03:38:03;10.40;;;1.52;;
54167;SDS011;68429;50.958;3.592;2023-03-25T03:40:36;14.25;;;2.30;;
54167;SDS011;68429;50.958;3.592;2023-03-25T03:43:18;12.80;;;2.72;;
54167;SDS011;68429;50.958;3.592;2023-03-25T03:45:51;10.95;;;2.03;;
54167;SDS011;68429;50.958;3.592;2023-03-25T03:48:24;5.78;;;1.35;;
54167;SDS011;68429;50.958;3.592;2023-03-25T03:50:54;11.35;;;1.95;;
54167;SDS011;68429;50.958;3.592;2023-03-25T03:53:41;10.70;;;1.58;;
54167;SDS011;68429;50.958;3.592;2023-03-25T03:56:22;7.93;;;2.30;;
54167;SDS011;68429;50.958;3.592;2023-03-25T03:58:53;7.57;;;1.50;;
54167;SDS011;68429;50.958;3.592;2023-03-25T04:01:25;10.88;;;1.80;;
54167;SDS011;68429;50.958;3.592;2023-03-25T04:04:06;14.20;;;2.15;;
54167;SDS011;68429;50.958;3.592;2023-03-25T04:06:37;4.57;;;1.10;;
54167;SDS011;68429;50.958;3.592;2023-03-25T04:12:06;8.60;;;2.05;;
54167;SDS011;68429;50.958;3.592;2023-03-25T04:14:34;13.65;;;1.95;;
54167;SDS011;68429;50.958;3.592;2023-03-25T04:17:00;6.38;;;0.75;;
54167;SDS011;68429;50.958;3.592;2023-03-25T04:19:26;8.90;;;2.10;;
54167;SDS011;68429;50.958;3.592;2023-03-25T04:21:52;9.80;;;1.50;;
54167;SDS011;68429;50.958;3.592;2023-03-25T04:24:18;6.50;;;1.25;;
54167;SDS011;68429;50.958;3.592;2023-03-25T04:26:44;5.68;;;0.90;;
54167;SDS011;68429;50.958;3.592;2023-03-25T04:29:10;8.10;;;1.52;;
54167;SDS011;68429;50.958;3.592;2023-03-25T04:31:38;3.55;;;1.15;;
54167;SDS011;68429;50.958;3.592;2023-03-25T04:34:10;7.03;;;1.35;;
54167;SDS011;68429;50.958;3.592;2023-03-25T04:36:38;12.73;;;1.50;;
54167;SDS011;68429;50.958;3.592;2023-03-25T04:39:05;8.63;;;2.28;;
54167;SDS011;68429;50.958;3.592;2023-03-25T04:41:31;11.27;;;1.70;;
54167;SDS011;68429;50.958;3.592;2023-03-25T04:43:57;8.13;;;1.42;;
54167;SDS011;68429;50.958;3.592;2023-03-25T04:46:23;3.25;;;1.20;;
54167;SDS011;68429;50.958;3.592;2023-03-25T04:48:50;9.77;;;2.00;;
54167;SDS011;68429;50.958;3.592;2023-03-25T04:51:18;10.43;;;3.10;;
54167;SDS011;68429;50.958;3.592;2023-03-25T04:53:44;13.13;;;3.05;;
54167;SDS011;68429;50.958;3.592;2023-03-25T04:56:14;15.25;;;2.00;;
54167;SDS011;68429;50.958;3.592;2023-03-25T04:58:44;12.50;;;2.10;;
54167;SDS011;68429;50.958;3.592;2023-03-25T05:01:21;12.05;;;2.28;;
54167;SDS011;68429;50.958;3.592;2023-03-25T05:03:58;16.65;;;2.40;;
54167;SDS011;68429;50.958;3.592;2023-03-25T05:06:31;16.60;;;2.53;;
54167;SDS011;68429;50.958;3.592;2023-03-25T05:08:58;18.55;;;2.10;;
54167;SDS011;68429;50.958;3.592;2023-03-25T05:11:26;12.35;;;2.17;;
54167;SDS011;68429;50.958;3.592;2023-03-25T05:13:53;8.25;;;2.05;;
54167;SDS011;68429;50.958;3.592;2023-03-25T05:16:19;18.23;;;2.55;;
54167;SDS011;68429;50.958;3.592;2023-03-25T05:18:44;19.20;;;2.78;;
54167;SDS011;68429;50.958;3.592;2023-03-25T05:21:10;15.40;;;2.53;;
54167;SDS011;68429;50.958;3.592;2023-03-25T05:23:36;19.55;;;3.70;;
54167;SDS011;68429;50.958;3.592;2023-03-25T05:26:02;12.07;;;2.30;;
54167;SDS011;68429;50.958;3.592;2023-03-25T05:28:28;18.20;;;3.25;;
54167;SDS011;68429;50.958;3.592;2023-03-25T05:30:54;22.63;;;2.67;;
54167;SDS011;68429;50.958;3.592;2023-03-25T05:33:20;22.75;;;3.17;;
54167;SDS011;68429;50.958;3.592;2023-03-25T05:35:46;23.58;;;3.20;;
54167;SDS011;68429;50.958;3.592;2023-03-25T05:38:13;22.10;;;3.15;;
54167;SDS011;68429;50.958;3.592;2023-03-25T05:40:43;17.50;;;2.85;;
54167;SDS011;68429;50.958;3.592;2023-03-25T05:43:15;17.30;;;2.65;;
54167;SDS011;68429;50.958;3.592;2023-03-25T05:45:41;17.35;;;3.38;;
54167;SDS011;68429;50.958;3.592;2023-03-25T05:48:08;18.13;;;3.50;;
54167;SDS011;68429;50.958;3.592;2023-03-25T05:50:35;21.42;;;3.65;;
54167;SDS011;68429;50.958;3.592;2023-03-25T05:53:01;17.27;;;3.83;;
54167;SDS011;68429;50.958;3.592;2023-03-25T05:55:28;26.95;;;2.88;;
54167;SDS011;68429;50.958;3.592;2023-03-25T05:57:53;13.90;;;3.28;;
54167;SDS011;68429;50.958;3.592;2023-03-25T06:00:21;14.63;;;2.47;;
54167;SDS011;68429;50.958;3.592;2023-03-25T06:02:47;18.55;;;2.67;;
54167;SDS011;68429;50.958;3.592;2023-03-25T06:05:13;31.20;;;4.28;;
54167;SDS011;68429;50.958;3.592;2023-03-25T06:07:41;20.80;;;3.17;;
54167;SDS011;68429;50.958;3.592;2023-03-25T06:10:08;28.23;;;3.13;;
54167;SDS011;68429;50.958;3.592;2023-03-25T06:12:34;26.33;;;3.60;;
54167;SDS011;68429;50.958;3.592;2023-03-25T06:15:13;26.08;;;4.07;;
54167;SDS011;68429;50.958;3.592;2023-03-25T06:17:41;23.80;;;2.70;;
54167;SDS011;68429;50.958;3.592;2023-03-25T06:20:10;38.05;;;4.38;;
54167;SDS011;68429;50.958;3.592;2023-03-25T06:22:42;23.85;;;4.30;;
54167;SDS011;68429;50.958;3.592;2023-03-25T06:25:10;23.80;;;4.45;;
54167;SDS011;68429;50.958;3.592;2023-03-25T06:27:37;21.63;;;3.22;;
54167;SDS011;68429;50.958;3.592;2023-03-25T06:30:10;24.92;;;3.65;;
54167;SDS011;68429;50.958;3.592;2023-03-25T06:32:45;24.08;;;3.63;;
54167;SDS011;68429;50.958;3.592;2023-03-25T06:35:14;25.80;;;4.45;;
54167;SDS011;68429;50.958;3.592;2023-03-25T06:37:43;20.85;;;3.67;;
54167;SDS011;68429;50.958;3.592;2023-03-25T06:40:13;21.52;;;3.47;;
54167;SDS011;68429;50.958;3.592;2023-03-25T06:42:39;16.98;;;3.30;;
54167;SDS011;68429;50.958;3.592;2023-03-25T06:45:06;32.38;;;5.43;;
54167;SDS011;68429;50.958;3.592;2023-03-25T06:47:32;22.40;;;4.78;;
54167;SDS011;68429;50.958;3.592;2023-03-25T06:49:58;34.78;;;5.15;;
54167;SDS011;68429;50.958;3.592;2023-03-25T06:52:24;28.45;;;4.15;;
54167;SDS011;68429;50.958;3.592;2023-03-25T06:54:50;21.83;;;3.67;;
54167;SDS011;68429;50.958;3.592;2023-03-25T06:57:15;25.10;;;4.13;;
54167;SDS011;68429;50.958;3.592;2023-03-25T06:59:41;27.80;;;4.18;;
54167;SDS011;68429;50.958;3.592;2023-03-25T07:02:08;23.60;;;4.18;;
54167;SDS011;68429;50.958;3.592;2023-03-25T07:04:36;23.77;;;3.67;;
54167;SDS011;68429;50.958;3.592;2023-03-25T07:07:02;24.65;;;3.75;;
54167;SDS011;68429;50.958;3.592;2023-03-25T07:09:27;30.23;;;4.95;;
54167;SDS011;68429;50.958;3.592;2023-03-25T07:11:53;26.13;;;4.15;;
54167;SDS011;68429;50.958;3.592;2023-03-25T07:14:19;28.73;;;4.03;;
54167;SDS011;68429;50.958;3.592;2023-03-25T07:16:44;41.00;;;5.10;;
54167;SDS011;68429;50.958;3.592;2023-03-25T07:19:10;38.03;;;5.75;;
54167;SDS011;68429;50.958;3.592;2023-03-25T07:21:36;28.42;;;4.68;;
54167;SDS011;68429;50.958;3.592;2023-03-25T07:24:01;20.90;;;3.78;;
54167;SDS011;68429;50.958;3.592;2023-03-25T07:26:27;22.95;;;4.38;;
54167;SDS011;68429;50.958;3.592;2023-03-25T07:28:53;28.00;;;3.97;;
54167;SDS011;68429;50.958;3.592;2023-03-25T07:31:19;27.92;;;4.57;;
54167;SDS011;68429;50.958;3.592;2023-03-25T07:33:44;30.15;;;5.38;;
54167;SDS011;68429;50.958;3.592;2023-03-25T07:36:11;21.05;;;3.55;;
54167;SDS011;68429;50.958;3.592;2023-03-25T07:38:37;27.67;;;3.58;;
54167;SDS011;68429;50.958;3.592;2023-03-25T07:41:04;25.33;;;4.22;;
54167;SDS011;68429;50.958;3.592;2023-03-25T07:43:30;18.65;;;4.03;;
54167;SDS011;68429;50.958;3.592;2023-03-25T07:45:57;27.85;;;4.25;;
54167;SDS011;68429;50.958;3.592;2023-03-25T07:48:22;27.98;;;4.55;;
54167;SDS011;68429;50.958;3.592;2023-03-25T07:50:49;31.45;;;4.85;;
54167;SDS011;68429;50.958;3.592;2023-03-25T07:53:16;22.23;;;5.03;;
54167;SDS011;68429;50.958;3.592;2023-03-25T07:55:42;31.38;;;5.10;;
54167;SDS011;68429;50.958;3.592;2023-03-25T07:58:09;31.73;;;4.38;;
54167;SDS011;68429;50.958;3.592;2023-03-25T08:00:35;24.75;;;3.80;;
54167;SDS011;68429;50.958;3.592;2023-03-25T08:03:01;24.25;;;4.20;;
54167;SDS011;68429;50.958;3.592;2023-03-25T08:05:28;28.50;;;3.95;;
54167;SDS011;68429;50.958;3.592;2023-03-25T08:07:55;33.72;;;4.95;;
54167;SDS011;68429;50.958;3.592;2023-03-25T08:10:24;23.13;;;3.73;;
54167;SDS011;68429;50.958;3.592;2023-03-25T08:12:50;28.98;;;4.88;;
54167;SDS011;68429;50.958;3.592;2023-03-25T08:15:20;27.48;;;4.82;;
54167;SDS011;68429;50.958;3.592;2023-03-25T08:17:48;29.23;;;3.90;;
54167;SDS011;68429;50.958;3.592;2023-03-25T08:20:16;23.77;;;4.80;;
54167;SDS011;68429;50.958;3.592;2023-03-25T08:22:45;34.10;;;4.05;;
54167;SDS011;68429;50.958;3.592;2023-03-25T08:25:11;28.60;;;5.07;;
54167;SDS011;68429;50.958;3.592;2023-03-25T08:27:38;27.02;;;5.43;;
54167;SDS011;68429;50.958;3.592;2023-03-25T08:30:05;25.45;;;4.60;;
54167;SDS011;68429;50.958;3.592;2023-03-25T08:32:33;21.05;;;4.50;;
54167;SDS011;68429;50.958;3.592;2023-03-25T08:35:00;25.85;;;4.90;;
54167;SDS011;68429;50.958;3.592;2023-03-25T08:37:29;25.17;;;4.80;;
54167;SDS011;68429;50.958;3.592;2023-03-25T08:39:59;34.08;;;5.20;;
54167;SDS011;68429;50.958;3.592;2023-03-25T08:42:25;24.85;;;4.18;;
54167;SDS011;68429;50.958;3.592;2023-03-25T08:44:51;25.15;;;4.70;;
54167;SDS011;68429;50.958;3.592;2023-03-25T08:47:16;27.90;;;5.25;;
54167;SDS011;68429;50.958;3.592;2023-03-25T08:49:42;29.33;;;4.70;;
54167;SDS011;68429;50.958;3.592;2023-03-25T08:52:08;27.35;;;4.88;;
54167;SDS011;68429;50.958;3.592;2023-03-25T08:54:34;23.45;;;3.25;;
54167;SDS011;68429;50.958;3.592;2023-03-25T08:57:00;25.50;;;4.32;;
54167;SDS011;68429;50.958;3.592;2023-03-25T08:59:26;26.45;;;3.90;;
54167;SDS011;68429;50.958;3.592;2023-03-25T09:01:52;23.30;;;4.00;;
54167;SDS011;68429;50.958;3.592;2023-03-25T09:04:18;24.50;;;4.53;;
54167;SDS011;68429;50.958;3.592;2023-03-25T09:06:43;31.77;;;5.10;;
54167;SDS011;68429;50.958;3.592;2023-03-25T09:09:09;30.85;;;4.78;;
54167;SDS011;68429;50.958;3.592;2023-03-25T09:11:36;27.20;;;5.13;;
54167;SDS011;68429;50.958;3.592;2023-03-25T09:14:02;27.05;;;4.90;;
54167;SDS011;68429;50.958;3.592;2023-03-25T09:16:29;26.15;;;4.38;;
54167;SDS011;68429;50.958;3.592;2023-03-25T09:18:55;28.80;;;5.50;;
54167;SDS011;68429;50.958;3.592;2023-03-25T09:21:21;27.42;;;5.05;;
54167;SDS011;68429;50.958;3.592;2023-03-25T09:23:47;24.73;;;5.00;;
54167;SDS011;68429;50.958;3.592;2023-03-25T09:26:13;34.45;;;4.63;;
54167;SDS011;68429;50.958;3.592;2023-03-25T09:28:38;40.67;;;6.20;;
54167;SDS011;68429;50.958;3.592;2023-03-25T09:31:04;28.73;;;4.53;;
54167;SDS011;68429;50.958;3.592;2023-03-25T09:33:30;20.42;;;3.95;;
54167;SDS011;68429;50.958;3.592;2023-03-25T09:35:56;23.08;;;4.40;;
54167;SDS011;68429;50.958;3.592;2023-03-25T09:38:22;24.77;;;4.25;;
54167;SDS011;68429;50.958;3.592;2023-03-25T09:40:47;22.40;;;4.80;;
54167;SDS011;68429;50.958;3.592;2023-03-25T09:45:45;30.58;;;5.75;;
54167;SDS011;68429;50.958;3.592;2023-03-25T09:48:18;26.17;;;3.83;;
54167;SDS011;68429;50.958;3.592;2023-03-25T09:50:47;21.25;;;4.50;;
54167;SDS011;68429;50.958;3.592;2023-03-25T09:53:22;17.23;;;3.83;;
54167;SDS011;68429;50.958;3.592;2023-03-25T09:55:53;29.58;;;4.63;;
54167;SDS011;68429;50.958;3.592;2023-03-25T10:04:06;23.02;;;4.43;;
54167;SDS011;68429;50.958;3.592;2023-03-25T10:15:00;19.08;;;4.20;;
54167;SDS011;68429;50.958;3.592;2023-03-25T10:20:51;16.13;;;3.38;;
54167;SDS011;68429;50.958;3.592;2023-03-25T10:26:08;14.10;;;3.15;;
54167;SDS011;68429;50.958;3.592;2023-03-25T10:28:40;21.08;;;4.15;;
54167;SDS011;68429;50.958;3.592;2023-03-25T10:31:15;18.92;;;4.40;;
54167;SDS011;68429;50.958;3.592;2023-03-25T10:33:43;26.77;;;4.80;;
54167;SDS011;68429;50.958;3.592;2023-03-25T10:36:23;20.23;;;3.97;;
54167;SDS011;68429;50.958;3.592;2023-03-25T10:39:10;18.67;;;3.78;;
54167;SDS011;68429;50.958;3.592;2023-03-25T10:41:42;23.92;;;3.85;;
54167;SDS011;68429;50.958;3.592;2023-03-25T10:44:14;23.67;;;4.35;;
54167;SDS011;68429;50.958;3.592;2023-03-25T10:46:49;27.38;;;4.53;;
54167;SDS011;68429;50.958;3.592;2023-03-25T10:49:23;32.08;;;5.47;;
54167;SDS011;68429;50.958;3.592;2023-03-25T10:51:52;19.65;;;3.97;;
54167;SDS011;68429;50.958;3.592;2023-03-25T10:54:21;24.30;;;4.10;;
54167;SDS011;68429;50.958;3.592;2023-03-25T11:01:58;31.65;;;4.65;;
54167;SDS011;68429;50.958;3.592;2023-03-25T11:04:36;18.85;;;4.20;;
54167;SDS011;68429;50.958;3.592;2023-03-25T11:07:12;18.17;;;3.97;;
54167;SDS011;68429;50.958;3.592;2023-03-25T11:12:10;16.00;;;3.67;;
54167;SDS011;68429;50.958;3.592;2023-03-25T11:14:37;21.08;;;3.90;;
54167;SDS011;68429;50.958;3.592;2023-03-25T11:17:11;23.27;;;3.40;;
54167;SDS011;68429;50.958;3.592;2023-03-25T11:22:21;16.73;;;3.15;;
54167;SDS011;68429;50.958;3.592;2023-03-25T11:24:53;14.10;;;2.88;;
54167;SDS011;68429;50.958;3.592;2023-03-25T11:27:25;17.50;;;4.20;;
54167;SDS011;68429;50.958;3.592;2023-03-25T11:29:54;13.00;;;3.53;;
54167;SDS011;68429;50.958;3.592;2023-03-25T11:32:32;14.68;;;3.35;;
54167;SDS011;68429;50.958;3.592;2023-03-25T11:35:07;16.27;;;3.15;;
54167;SDS011;68429;50.958;3.592;2023-03-25T11:37:47;23.55;;;3.80;;
54167;SDS011;68429;50.958;3.592;2023-03-25T11:40:18;19.65;;;3.88;;
54167;SDS011;68429;50.958;3.592;2023-03-25T11:42:45;14.65;;;3.20;;
54167;SDS011;68429;50.958;3.592;2023-03-25T11:48:08;18.73;;;3.92;;
54167;SDS011;68429;50.958;3.592;2023-03-25T11:50:46;18.05;;;3.97;;
54167;SDS011;68429;50.958;3.592;2023-03-25T11:53:18;17.40;;;3.00;;
54167;SDS011;68429;50.958;3.592;2023-03-25T11:55:49;17.15;;;3.88;;
54167;SDS011;68429;50.958;3.592;2023-03-25T11:58:20;12.23;;;2.33;;
54167;SDS011;68429;50.958;3.592;2023-03-25T12:00:51;13.00;;;3.05;;
54167;SDS011;68429;50.958;3.592;2023-03-25T12:03:26;17.52;;;4.50;;
54167;SDS011;68429;50.958;3.592;2023-03-25T12:05:56;23.67;;;4.10;;
54167;SDS011;68429;50.958;3.592;2023-03-25T12:08:22;19.90;;;4.30;;
54167;SDS011;68429;50.958;3.592;2023-03-25T12:25:02;17.35;;;4.05;;
54167;SDS011;68429;50.958;3.592;2023-03-25T12:39:02;19.23;;;3.42;;
54167;SDS011;68429;50.958;3.592;2023-03-25T12:41:43;16.40;;;3.55;;
54167;SDS011;68429;50.958;3.592;2023-03-25T13:08:42;17.63;;;3.22;;
54167;SDS011;68429;50.958;3.592;2023-03-25T13:11:14;14.73;;;3.60;;
54167;SDS011;68429;50.958;3.592;2023-03-25T13:13:45;15.05;;;3.25;;
54167;SDS011;68429;50.958;3.592;2023-03-25T13:16:17;15.25;;;2.90;;
54167;SDS011;68429;50.958;3.592;2023-03-25T13:21:27;18.50;;;4.30;;
54167;SDS011;68429;50.958;3.592;2023-03-25T13:23:56;33.28;;;4.88;;
54167;SDS011;68429;50.958;3.592;2023-03-25T13:26:29;10.18;;;2.63;;
54167;SDS011;68429;50.958;3.592;2023-03-25T13:28:58;18.58;;;3.70;;
54167;SDS011;68429;50.958;3.592;2023-03-25T13:31:30;24.65;;;3.67;;
54167;SDS011;68429;50.958;3.592;2023-03-25T13:36:41;19.45;;;3.20;;
54167;SDS011;68429;50.958;3.592;2023-03-25T13:39:14;10.90;;;2.35;;
54167;SDS011;68429;50.958;3.592;2023-03-25T13:41:49;13.25;;;2.80;;
54167;SDS011;68429;50.958;3.592;2023-03-25T13:44:28;8.23;;;2.15;;
54167;SDS011;68429;50.958;3.592;2023-03-25T13:47:18;13.88;;;3.10;;
54167;SDS011;68429;50.958;3.592;2023-03-25T13:52:18;9.82;;;2.90;;
54167;SDS011;68429;50.958;3.592;2023-03-25T13:54:49;8.45;;;2.38;;
54167;SDS011;68429;50.958;3.592;2023-03-25T13:57:52;18.23;;;3.85;;
54167;SDS011;68429;50.958;3.592;2023-03-25T14:13:50;17.98;;;3.42;;
54167;SDS011;68429;50.958;3.592;2023-03-25T14:16:21;19.58;;;3.10;;
54167;SDS011;68429;50.958;3.592;2023-03-25T14:18:52;16.45;;;3.65;;
54167;SDS011;68429;50.958;3.592;2023-03-25T14:21:56;21.00;;;3.55;;
54167;SDS011;68429;50.958;3.592;2023-03-25T14:24:30;12.80;;;3.03;;
54167;SDS011;68429;50.958;3.592;2023-03-25T14:32:47;16.38;;;3.17;;
54167;SDS011;68429;50.958;3.592;2023-03-25T14:43:17;20.38;;;4.53;;
54167;SDS011;68429;50.958;3.592;2023-03-25T14:46:05;19.95;;;3.80;;
54167;SDS011;68429;50.958;3.592;2023-03-25T14:48:35;22.93;;;4.07;;
54167;SDS011;68429;50.958;3.592;2023-03-25T14:59:33;21.50;;;4.50;;
54167;SDS011;68429;50.958;3.592;2023-03-25T15:02:03;19.63;;;3.53;;
54167;SDS011;68429;50.958;3.592;2023-03-25T15:04:35;19.13;;;3.25;;
54167;SDS011;68429;50.958;3.592;2023-03-25T15:07:02;18.73;;;3.17;;
54167;SDS011;68429;50.958;3.592;2023-03-25T15:09:41;16.20;;;2.65;;
54167;SDS011;68429;50.958;3.592;2023-03-25T15:12:15;19.63;;;3.35;;
54167;SDS011;68429;50.958;3.592;2023-03-25T15:14:44;20.35;;;4.07;;
54167;SDS011;68429;50.958;3.592;2023-03-25T15:20:11;19.38;;;3.50;;
54167;SDS011;68429;50.958;3.592;2023-03-25T15:25:53;19.60;;;4.53;;
54167;SDS011;68429;50.958;3.592;2023-03-25T15:36:43;24.80;;;4.72;;
54167;SDS011;68429;50.958;3.592;2023-03-25T15:39:24;20.92;;;4.07;;
54167;SDS011;68429;50.958;3.592;2023-03-25T15:45:10;28.30;;;4.68;;
54167;SDS011;68429;50.958;3.592;2023-03-25T15:47:43;23.35;;;3.92;;
54167;SDS011;68429;50.958;3.592;2023-03-25T15:50:32;16.38;;;3.67;;
54167;SDS011;68429;50.958;3.592;2023-03-25T15:56:07;22.67;;;3.67;;
54167;SDS011;68429;50.958;3.592;2023-03-25T15:58:58;30.80;;;4.57;;
54167;SDS011;68429;50.958;3.592;2023-03-25T16:01:30;25.30;;;3.85;;
54167;SDS011;68429;50.958;3.592;2023-03-25T16:04:45;23.45;;;4.82;;
54167;SDS011;68429;50.958;3.592;2023-03-25T16:06:59;21.75;;;3.75;;
54167;SDS011;68429;50.958;3.592;2023-03-25T16:09:27;20.33;;;4.28;;
54167;SDS011;68429;50.958;3.592;2023-03-25T16:11:57;24.63;;;4.53;;
54167;SDS011;68429;50.958;3.592;2023-03-25T16:14:27;25.77;;;4.32;;
54167;SDS011;68429;50.958;3.592;2023-03-25T16:16:55;22.65;;;5.07;;
54167;SDS011;68429;50.958;3.592;2023-03-25T16:19:22;24.92;;;3.75;;
54167;SDS011;68429;50.958;3.592;2023-03-25T16:22:21;29.67;;;6.07;;
54167;SDS011;68429;50.958;3.592;2023-03-25T16:24:48;31.67;;;4.97;;
54167;SDS011;68429;50.958;3.592;2023-03-25T16:27:19;25.08;;;4.57;;
54167;SDS011;68429;50.958;3.592;2023-03-25T16:33:20;28.85;;;4.68;;
54167;SDS011;68429;50.958;3.592;2023-03-25T16:38:22;28.85;;;5.25;;
54167;SDS011;68429;50.958;3.592;2023-03-25T16:40:49;12.20;;;3.65;;
54167;SDS011;68429;50.958;3.592;2023-03-25T16:43:19;21.58;;;3.60;;
54167;SDS011;68429;50.958;3.592;2023-03-25T16:45:48;28.50;;;5.55;;
54167;SDS011;68429;50.958;3.592;2023-03-25T16:51:04;34.92;;;6.22;;
54167;SDS011;68429;50.958;3.592;2023-03-25T16:53:40;25.77;;;4.75;;
54167;SDS011;68429;50.958;3.592;2023-03-25T16:58:47;27.20;;;5.00;;
54167;SDS011;68429;50.958;3.592;2023-03-25T17:01:39;32.95;;;5.38;;
54167;SDS011;68429;50.958;3.592;2023-03-25T17:06:43;22.58;;;3.95;;
54167;SDS011;68429;50.958;3.592;2023-03-25T17:09:16;21.02;;;4.30;;
54167;SDS011;68429;50.958;3.592;2023-03-25T17:11:44;19.13;;;4.95;;
54167;SDS011;68429;50.958;3.592;2023-03-25T17:14:15;31.65;;;5.60;;
54167;SDS011;68429;50.958;3.592;2023-03-25T17:16:46;25.77;;;5.03;;
54167;SDS011;68429;50.958;3.592;2023-03-25T17:19:15;26.05;;;5.60;;
54167;SDS011;68429;50.958;3.592;2023-03-25T17:24:35;34.78;;;5.13;;
54167;SDS011;68429;50.958;3.592;2023-03-25T17:27:05;27.60;;;5.13;;
54167;SDS011;68429;50.958;3.592;2023-03-25T17:29:59;34.08;;;6.18;;
54167;SDS011;68429;50.958;3.592;2023-03-25T17:32:40;26.05;;;3.88;;
54167;SDS011;68429;50.958;3.592;2023-03-25T17:35:15;32.17;;;4.95;;
54167;SDS011;68429;50.958;3.592;2023-03-25T17:37:51;28.40;;;5.35;;
54167;SDS011;68429;50.958;3.592;2023-03-25T17:40:24;28.38;;;4.65;;
54167;SDS011;68429;50.958;3.592;2023-03-25T17:42:52;40.67;;;6.60;;
54167;SDS011;68429;50.958;3.592;2023-03-25T17:45:18;33.40;;;6.00;;
54167;SDS011;68429;50.958;3.592;2023-03-25T17:47:46;37.58;;;6.13;;
54167;SDS011;68429;50.958;3.592;2023-03-25T17:50:24;46.45;;;7.80;;
54167;SDS011;68429;50.958;3.592;2023-03-25T17:52:51;28.50;;;6.55;;
54167;SDS011;68429;50.958;3.592;2023-03-25T17:55:17;43.97;;;6.70;;
54167;SDS011;68429;50.958;3.592;2023-03-25T17:57:43;36.85;;;6.15;;
54167;SDS011;68429;50.958;3.592;2023-03-25T18:00:13;41.80;;;6.72;;
54167;SDS011;68429;50.958;3.592;2023-03-25T18:02:42;41.90;;;6.03;;
54167;SDS011;68429;50.958;3.592;2023-03-25T18:05:09;34.63;;;5.72;;
54167;SDS011;68429;50.958;3.592;2023-03-25T18:07:35;37.97;;;5.43;;
54167;SDS011;68429;50.958;3.592;2023-03-25T18:10:01;41.60;;;6.53;;
54167;SDS011;68429;50.958;3.592;2023-03-25T18:12:30;36.60;;;6.47;;
54167;SDS011;68429;50.958;3.592;2023-03-25T18:14:56;39.17;;;6.20;;